sensor_id;sensor_type;location;lat;lon;timestamp;P1;durP1;ratioP1;P2;durP2;ratioP2
51828;SDS011;37881;48.024;8.774;2023-06-14T00:02:01;9.37;;;5.90;;
51828;SDS011;37881;48.024;8.774;2023-06-14T00:04:28;20.00;;;11.32;;
51828;SDS011;37881;48.024;8.774;2023-06-14T00:06:55;9.82;;;6.80;;
51828;SDS011;37881;48.024;8.774;2023-06-14T00:09:23;9.50;;;6.25;;
51828;SDS011;37881;48.024;8.774;2023-06-14T00:11:49;10.07;;;6.45;;
51828;SDS011;37881;48.024;8.774;2023-06-14T00:14:16;9.87;;;6.10;;
51828;SDS011;37881;48.024;8.774;2023-06-14T00:16:43;10.25;;;6.20;;
51828;SDS011;37881;48.024;8.774;2023-06-14T00:19:11;9.35;;;6.35;;
51828;SDS011;37881;48.024;8.774;2023-06-14T00:21:38;9.80;;;6.03;;
51828;SDS011;37881;48.024;8.774;2023-06-14T00:24:05;9.68;;;6.20;;
51828;SDS011;37881;48.024;8.774;2023-06-14T00:26:32;10.60;;;6.30;;
51828;SDS011;37881;48.024;8.774;2023-06-14T00:28:58;50.00;;;28.13;;
51828;SDS011;37881;48.024;8.774;2023-06-14T00:31:25;50.13;;;31.42;;
51828;SDS011;37881;48.024;8.774;2023-06-14T00:33:52;22.45;;;12.32;;
51828;SDS011;37881;48.024;8.774;2023-06-14T00:36:19;9.68;;;6.13;;
51828;SDS011;37881;48.024;8.774;2023-06-14T00:38:46;9.90;;;5.40;;
51828;SDS011;37881;48.024;8.774;2023-06-14T00:41:12;8.18;;;5.57;;
51828;SDS011;37881;48.024;8.774;2023-06-14T00:43:39;9.45;;;5.30;;
51828;SDS011;37881;48.024;8.774;2023-06-14T00:46:06;8.93;;;5.88;;
51828;SDS011;37881;48.024;8.774;2023-06-14T00:48:32;9.10;;;5.65;;
51828;SDS011;37881;48.024;8.774;2023-06-14T00:51:00;9.60;;;5.50;;
51828;SDS011;37881;48.024;8.774;2023-06-14T00:53:30;9.02;;;5.65;;
51828;SDS011;37881;48.024;8.774;2023-06-14T00:56:00;10.50;;;6.28;;
51828;SDS011;37881;48.024;8.774;2023-06-14T00:58:27;8.95;;;5.85;;
51828;SDS011;37881;48.024;8.774;2023-06-14T01:00:55;9.13;;;5.50;;
51828;SDS011;37881;48.024;8.774;2023-06-14T01:03:22;10.23;;;5.70;;
51828;SDS011;37881;48.024;8.774;2023-06-14T01:05:51;10.02;;;5.65;;
51828;SDS011;37881;48.024;8.774;2023-06-14T01:08:44;9.07;;;5.93;;
51828;SDS011;37881;48.024;8.774;2023-06-14T01:11:28;9.68;;;5.70;;
51828;SDS011;37881;48.024;8.774;2023-06-14T01:14:03;8.07;;;5.70;;
51828;SDS011;37881;48.024;8.774;2023-06-14T01:16:30;8.17;;;5.70;;
51828;SDS011;37881;48.024;8.774;2023-06-14T01:18:58;9.07;;;5.88;;
51828;SDS011;37881;48.024;8.774;2023-06-14T01:21:25;11.82;;;6.00;;
51828;SDS011;37881;48.024;8.774;2023-06-14T01:23:52;9.20;;;6.20;;
51828;SDS011;37881;48.024;8.774;2023-06-14T01:26:20;9.75;;;6.45;;
51828;SDS011;37881;48.024;8.774;2023-06-14T01:28:50;9.70;;;5.63;;
51828;SDS011;37881;48.024;8.774;2023-06-14T01:31:21;10.48;;;6.18;;
51828;SDS011;37881;48.024;8.774;2023-06-14T01:33:49;9.60;;;6.07;;
51828;SDS011;37881;48.024;8.774;2023-06-14T01:36:20;8.70;;;6.05;;
51828;SDS011;37881;48.024;8.774;2023-06-14T01:38:50;8.50;;;6.10;;
51828;SDS011;37881;48.024;8.774;2023-06-14T01:41:17;9.57;;;6.47;;
51828;SDS011;37881;48.024;8.774;2023-06-14T01:43:47;10.43;;;6.57;;
51828;SDS011;37881;48.024;8.774;2023-06-14T01:46:16;9.68;;;6.05;;
51828;SDS011;37881;48.024;8.774;2023-06-14T01:48:43;8.93;;;5.85;;
51828;SDS011;37881;48.024;8.774;2023-06-14T01:51:10;9.52;;;6.22;;
51828;SDS011;37881;48.024;8.774;2023-06-14T01:53:37;10.27;;;6.30;;
51828;SDS011;37881;48.024;8.774;2023-06-14T01:56:04;10.15;;;6.20;;
51828;SDS011;37881;48.024;8.774;2023-06-14T01:58:31;9.40;;;6.32;;
51828;SDS011;37881;48.024;8.774;2023-06-14T02:00:59;8.75;;;6.07;;
51828;SDS011;37881;48.024;8.774;2023-06-14T02:03:27;9.18;;;5.97;;
51828;SDS011;37881;48.024;8.774;2023-06-14T02:05:54;8.40;;;6.00;;
51828;SDS011;37881;48.024;8.774;2023-06-14T02:08:22;11.75;;;6.00;;
51828;SDS011;37881;48.024;8.774;2023-06-14T02:10:49;11.57;;;6.45;;
51828;SDS011;37881;48.024;8.774;2023-06-14T02:13:16;10.75;;;6.03;;
51828;SDS011;37881;48.024;8.774;2023-06-14T02:15:43;8.65;;;5.88;;
51828;SDS011;37881;48.024;8.774;2023-06-14T02:18:11;9.33;;;6.10;;
51828;SDS011;37881;48.024;8.774;2023-06-14T02:20:38;9.02;;;6.38;;
51828;SDS011;37881;48.024;8.774;2023-06-14T02:23:05;10.07;;;6.35;;
51828;SDS011;37881;48.024;8.774;2023-06-14T02:25:34;9.18;;;6.07;;
51828;SDS011;37881;48.024;8.774;2023-06-14T02:28:01;9.20;;;6.30;;
51828;SDS011;37881;48.024;8.774;2023-06-14T02:30:28;9.47;;;5.83;;
51828;SDS011;37881;48.024;8.774;2023-06-14T02:32:55;9.85;;;6.35;;
51828;SDS011;37881;48.024;8.774;2023-06-14T02:35:23;21.55;;;11.63;;
51828;SDS011;37881;48.024;8.774;2023-06-14T02:37:52;12.68;;;7.95;;
51828;SDS011;37881;48.024;8.774;2023-06-14T02:40:19;14.32;;;7.55;;
51828;SDS011;37881;48.024;8.774;2023-06-14T02:42:46;11.80;;;6.67;;
51828;SDS011;37881;48.024;8.774;2023-06-14T02:45:13;9.73;;;6.40;;
51828;SDS011;37881;48.024;8.774;2023-06-14T02:47:40;9.13;;;6.35;;
51828;SDS011;37881;48.024;8.774;2023-06-14T02:50:07;9.77;;;6.30;;
51828;SDS011;37881;48.024;8.774;2023-06-14T02:52:34;10.27;;;6.18;;
51828;SDS011;37881;48.024;8.774;2023-06-14T02:55:01;8.77;;;5.93;;
51828;SDS011;37881;48.024;8.774;2023-06-14T02:57:28;9.85;;;5.50;;
51828;SDS011;37881;48.024;8.774;2023-06-14T02:59:54;9.00;;;5.97;;
51828;SDS011;37881;48.024;8.774;2023-06-14T03:02:21;9.02;;;5.82;;
51828;SDS011;37881;48.024;8.774;2023-06-14T03:04:48;9.32;;;6.30;;
51828;SDS011;37881;48.024;8.774;2023-06-14T03:07:15;10.93;;;5.83;;
51828;SDS011;37881;48.024;8.774;2023-06-14T03:09:46;9.25;;;6.07;;
51828;SDS011;37881;48.024;8.774;2023-06-14T03:12:15;10.18;;;6.25;;
51828;SDS011;37881;48.024;8.774;2023-06-14T03:14:41;9.50;;;6.13;;
51828;SDS011;37881;48.024;8.774;2023-06-14T03:17:09;10.98;;;6.30;;
51828;SDS011;37881;48.024;8.774;2023-06-14T03:19:36;8.67;;;6.10;;
51828;SDS011;37881;48.024;8.774;2023-06-14T03:22:04;10.13;;;5.90;;
51828;SDS011;37881;48.024;8.774;2023-06-14T03:24:31;9.15;;;5.93;;
51828;SDS011;37881;48.024;8.774;2023-06-14T03:27:03;10.48;;;6.13;;
51828;SDS011;37881;48.024;8.774;2023-06-14T03:29:30;9.80;;;6.40;;
51828;SDS011;37881;48.024;8.774;2023-06-14T03:32:01;10.90;;;6.03;;
51828;SDS011;37881;48.024;8.774;2023-06-14T03:34:29;8.93;;;5.97;;
51828;SDS011;37881;48.024;8.774;2023-06-14T03:36:56;9.75;;;6.10;;
51828;SDS011;37881;48.024;8.774;2023-06-14T03:39:23;9.40;;;6.00;;
51828;SDS011;37881;48.024;8.774;2023-06-14T03:41:50;9.57;;;5.95;;
51828;SDS011;37881;48.024;8.774;2023-06-14T03:44:17;9.80;;;5.87;;
51828;SDS011;37881;48.024;8.774;2023-06-14T03:46:45;9.70;;;5.80;;
51828;SDS011;37881;48.024;8.774;2023-06-14T03:49:12;11.75;;;5.70;;
51828;SDS011;37881;48.024;8.774;2023-06-14T03:51:39;9.27;;;5.55;;
51828;SDS011;37881;48.024;8.774;2023-06-14T03:54:07;9.45;;;5.63;;
51828;SDS011;37881;48.024;8.774;2023-06-14T03:56:53;8.10;;;5.33;;
51828;SDS011;37881;48.024;8.774;2023-06-14T03:59:20;9.30;;;5.60;;
51828;SDS011;37881;48.024;8.774;2023-06-14T04:01:47;8.48;;;5.80;;
51828;SDS011;37881;48.024;8.774;2023-06-14T04:04:15;9.10;;;5.75;;
51828;SDS011;37881;48.024;8.774;2023-06-14T04:06:42;10.15;;;5.60;;
51828;SDS011;37881;48.024;8.774;2023-06-14T04:09:09;8.70;;;6.00;;
51828;SDS011;37881;48.024;8.774;2023-06-14T04:11:36;9.20;;;5.88;;
51828;SDS011;37881;48.024;8.774;2023-06-14T04:14:03;9.20;;;6.18;;
51828;SDS011;37881;48.024;8.774;2023-06-14T04:16:30;12.05;;;6.10;;
51828;SDS011;37881;48.024;8.774;2023-06-14T04:18:56;10.50;;;6.18;;
51828;SDS011;37881;48.024;8.774;2023-06-14T04:21:24;11.27;;;6.53;;
51828;SDS011;37881;48.024;8.774;2023-06-14T04:23:52;9.93;;;6.07;;
51828;SDS011;37881;48.024;8.774;2023-06-14T04:26:19;12.57;;;6.78;;
51828;SDS011;37881;48.024;8.774;2023-06-14T04:28:49;11.82;;;6.18;;
51828;SDS011;37881;48.024;8.774;2023-06-14T04:31:17;11.10;;;6.70;;
51828;SDS011;37881;48.024;8.774;2023-06-14T04:33:44;9.23;;;6.40;;
51828;SDS011;37881;48.024;8.774;2023-06-14T04:36:13;9.65;;;6.80;;
51828;SDS011;37881;48.024;8.774;2023-06-14T04:38:40;12.50;;;7.13;;
51828;SDS011;37881;48.024;8.774;2023-06-14T04:41:07;9.40;;;6.78;;
51828;SDS011;37881;48.024;8.774;2023-06-14T04:43:38;10.48;;;6.97;;
51828;SDS011;37881;48.024;8.774;2023-06-14T04:46:05;9.97;;;6.90;;
51828;SDS011;37881;48.024;8.774;2023-06-14T04:48:37;11.05;;;7.35;;
51828;SDS011;37881;48.024;8.774;2023-06-14T04:51:07;13.45;;;7.40;;
51828;SDS011;37881;48.024;8.774;2023-06-14T04:53:37;11.50;;;7.45;;
51828;SDS011;37881;48.024;8.774;2023-06-14T04:56:04;10.48;;;7.05;;
51828;SDS011;37881;48.024;8.774;2023-06-14T04:58:30;10.90;;;7.30;;
51828;SDS011;37881;48.024;8.774;2023-06-14T05:00:58;11.50;;;8.18;;
51828;SDS011;37881;48.024;8.774;2023-06-14T05:03:26;13.55;;;9.23;;
51828;SDS011;37881;48.024;8.774;2023-06-14T05:05:54;11.65;;;8.45;;
51828;SDS011;37881;48.024;8.774;2023-06-14T05:08:21;13.30;;;8.40;;
51828;SDS011;37881;48.024;8.774;2023-06-14T05:10:52;13.17;;;8.10;;
51828;SDS011;37881;48.024;8.774;2023-06-14T05:13:19;11.50;;;7.65;;
51828;SDS011;37881;48.024;8.774;2023-06-14T05:15:48;12.98;;;8.05;;
51828;SDS011;37881;48.024;8.774;2023-06-14T05:18:15;10.50;;;7.10;;
51828;SDS011;37881;48.024;8.774;2023-06-14T05:20:42;10.10;;;7.00;;
51828;SDS011;37881;48.024;8.774;2023-06-14T05:23:09;11.40;;;7.40;;
51828;SDS011;37881;48.024;8.774;2023-06-14T05:25:45;12.15;;;6.95;;
51828;SDS011;37881;48.024;8.774;2023-06-14T05:28:12;11.63;;;7.20;;
51828;SDS011;37881;48.024;8.774;2023-06-14T05:30:39;11.30;;;7.10;;
51828;SDS011;37881;48.024;8.774;2023-06-14T05:33:06;12.57;;;7.40;;
51828;SDS011;37881;48.024;8.774;2023-06-14T05:35:33;11.50;;;6.73;;
51828;SDS011;37881;48.024;8.774;2023-06-14T05:38:00;10.32;;;6.93;;
51828;SDS011;37881;48.024;8.774;2023-06-14T05:40:26;9.15;;;6.75;;
51828;SDS011;37881;48.024;8.774;2023-06-14T05:42:53;9.13;;;6.32;;
51828;SDS011;37881;48.024;8.774;2023-06-14T05:45:20;9.90;;;6.05;;
51828;SDS011;37881;48.024;8.774;2023-06-14T05:47:47;8.37;;;6.13;;
51828;SDS011;37881;48.024;8.774;2023-06-14T05:50:14;10.43;;;5.53;;
51828;SDS011;37881;48.024;8.774;2023-06-14T05:52:40;7.20;;;5.57;;
51828;SDS011;37881;48.024;8.774;2023-06-14T05:55:07;10.82;;;5.63;;
51828;SDS011;37881;48.024;8.774;2023-06-14T05:57:34;8.45;;;5.45;;
51828;SDS011;37881;48.024;8.774;2023-06-14T06:00:02;10.70;;;5.50;;
51828;SDS011;37881;48.024;8.774;2023-06-14T06:02:36;8.55;;;5.75;;
51828;SDS011;37881;48.024;8.774;2023-06-14T06:05:03;11.30;;;5.90;;
51828;SDS011;37881;48.024;8.774;2023-06-14T06:07:30;11.18;;;5.20;;
51828;SDS011;37881;48.024;8.774;2023-06-14T06:09:57;11.90;;;5.45;;
51828;SDS011;37881;48.024;8.774;2023-06-14T06:12:23;8.00;;;5.47;;
51828;SDS011;37881;48.024;8.774;2023-06-14T06:14:50;9.77;;;5.32;;
51828;SDS011;37881;48.024;8.774;2023-06-14T06:17:17;7.40;;;5.50;;
51828;SDS011;37881;48.024;8.774;2023-06-14T06:19:44;10.63;;;5.88;;
51828;SDS011;37881;48.024;8.774;2023-06-14T06:22:11;9.95;;;6.32;;
51828;SDS011;37881;48.024;8.774;2023-06-14T06:24:38;7.77;;;5.00;;
51828;SDS011;37881;48.024;8.774;2023-06-14T06:27:04;13.90;;;5.20;;
51828;SDS011;37881;48.024;8.774;2023-06-14T06:29:34;10.70;;;5.70;;
51828;SDS011;37881;48.024;8.774;2023-06-14T06:32:01;9.18;;;6.20;;
51828;SDS011;37881;48.024;8.774;2023-06-14T06:34:28;9.40;;;5.72;;
51828;SDS011;37881;48.024;8.774;2023-06-14T06:36:55;8.20;;;5.67;;
51828;SDS011;37881;48.024;8.774;2023-06-14T06:39:22;7.43;;;5.43;;
51828;SDS011;37881;48.024;8.774;2023-06-14T06:41:48;9.18;;;5.68;;
51828;SDS011;37881;48.024;8.774;2023-06-14T06:44:15;7.75;;;5.68;;
51828;SDS011;37881;48.024;8.774;2023-06-14T06:46:43;14.45;;;6.05;;
51828;SDS011;37881;48.024;8.774;2023-06-14T06:49:10;11.23;;;5.60;;
51828;SDS011;37881;48.024;8.774;2023-06-14T06:51:40;11.55;;;6.15;;
51828;SDS011;37881;48.024;8.774;2023-06-14T06:54:08;10.77;;;5.88;;
51828;SDS011;37881;48.024;8.774;2023-06-14T06:56:35;9.75;;;6.30;;
51828;SDS011;37881;48.024;8.774;2023-06-14T06:59:02;9.65;;;5.90;;
51828;SDS011;37881;48.024;8.774;2023-06-14T07:01:29;8.20;;;5.17;;
51828;SDS011;37881;48.024;8.774;2023-06-14T07:03:56;8.23;;;5.80;;
51828;SDS011;37881;48.024;8.774;2023-06-14T07:06:23;8.02;;;5.45;;
51828;SDS011;37881;48.024;8.774;2023-06-14T07:08:53;8.52;;;5.47;;
51828;SDS011;37881;48.024;8.774;2023-06-14T07:11:20;6.95;;;5.60;;
51828;SDS011;37881;48.024;8.774;2023-06-14T07:13:47;11.53;;;5.37;;
51828;SDS011;37881;48.024;8.774;2023-06-14T07:16:14;11.38;;;6.10;;
51828;SDS011;37881;48.024;8.774;2023-06-14T07:18:41;14.05;;;6.60;;
51828;SDS011;37881;48.024;8.774;2023-06-14T07:21:08;8.82;;;6.00;;
51828;SDS011;37881;48.024;8.774;2023-06-14T07:23:35;8.13;;;5.88;;
51828;SDS011;37881;48.024;8.774;2023-06-14T07:26:01;7.30;;;5.80;;
51828;SDS011;37881;48.024;8.774;2023-06-14T07:28:29;7.90;;;6.10;;
51828;SDS011;37881;48.024;8.774;2023-06-14T07:30:56;8.18;;;5.90;;
51828;SDS011;37881;48.024;8.774;2023-06-14T07:33:23;8.00;;;6.05;;
51828;SDS011;37881;48.024;8.774;2023-06-14T07:35:50;8.50;;;5.55;;
51828;SDS011;37881;48.024;8.774;2023-06-14T07:38:19;6.87;;;5.60;;
51828;SDS011;37881;48.024;8.774;2023-06-14T07:40:46;8.38;;;5.85;;
51828;SDS011;37881;48.024;8.774;2023-06-14T07:43:13;8.15;;;5.00;;
51828;SDS011;37881;48.024;8.774;2023-06-14T07:45:39;10.30;;;5.20;;
51828;SDS011;37881;48.024;8.774;2023-06-14T07:48:16;6.28;;;4.28;;
51828;SDS011;37881;48.024;8.774;2023-06-14T07:50:43;6.47;;;4.00;;
51828;SDS011;37881;48.024;8.774;2023-06-14T07:53:10;6.18;;;3.92;;
51828;SDS011;37881;48.024;8.774;2023-06-14T07:55:36;4.97;;;3.53;;
51828;SDS011;37881;48.024;8.774;2023-06-14T07:58:18;5.55;;;3.72;;
51828;SDS011;37881;48.024;8.774;2023-06-14T08:00:45;5.25;;;3.72;;
51828;SDS011;37881;48.024;8.774;2023-06-14T08:03:13;6.63;;;3.93;;
51828;SDS011;37881;48.024;8.774;2023-06-14T08:05:40;7.38;;;3.92;;
51828;SDS011;37881;48.024;8.774;2023-06-14T08:08:07;5.97;;;4.00;;
51828;SDS011;37881;48.024;8.774;2023-06-14T08:10:34;5.25;;;3.95;;
51828;SDS011;37881;48.024;8.774;2023-06-14T08:13:01;8.18;;;3.72;;
51828;SDS011;37881;48.024;8.774;2023-06-14T08:15:28;6.57;;;4.00;;
51828;SDS011;37881;48.024;8.774;2023-06-14T08:17:54;7.55;;;3.90;;
51828;SDS011;37881;48.024;8.774;2023-06-14T08:20:21;12.23;;;4.30;;
51828;SDS011;37881;48.024;8.774;2023-06-14T08:22:48;11.15;;;4.32;;
51828;SDS011;37881;48.024;8.774;2023-06-14T08:25:15;5.65;;;4.28;;
51828;SDS011;37881;48.024;8.774;2023-06-14T08:27:42;7.33;;;4.40;;
51828;SDS011;37881;48.024;8.774;2023-06-14T08:30:09;8.23;;;4.50;;
51828;SDS011;37881;48.024;8.774;2023-06-14T08:32:36;9.35;;;4.70;;
51828;SDS011;37881;48.024;8.774;2023-06-14T08:35:04;5.35;;;4.10;;
51828;SDS011;37881;48.024;8.774;2023-06-14T08:37:32;7.20;;;4.43;;
51828;SDS011;37881;48.024;8.774;2023-06-14T08:40:00;5.60;;;4.20;;
51828;SDS011;37881;48.024;8.774;2023-06-14T08:42:28;6.47;;;4.70;;
51828;SDS011;37881;48.024;8.774;2023-06-14T08:44:58;7.32;;;4.38;;
51828;SDS011;37881;48.024;8.774;2023-06-14T08:47:25;6.20;;;4.30;;
51828;SDS011;37881;48.024;8.774;2023-06-14T08:49:53;15.43;;;4.70;;
51828;SDS011;37881;48.024;8.774;2023-06-14T08:52:23;7.47;;;4.00;;
51828;SDS011;37881;48.024;8.774;2023-06-14T08:54:56;12.38;;;4.35;;
51828;SDS011;37881;48.024;8.774;2023-06-14T08:57:24;7.07;;;4.70;;
51828;SDS011;37881;48.024;8.774;2023-06-14T08:59:52;8.13;;;4.15;;
51828;SDS011;37881;48.024;8.774;2023-06-14T09:02:20;5.38;;;4.47;;
51828;SDS011;37881;48.024;8.774;2023-06-14T09:04:49;5.77;;;4.33;;
51828;SDS011;37881;48.024;8.774;2023-06-14T09:07:18;6.93;;;4.40;;
51828;SDS011;37881;48.024;8.774;2023-06-14T09:09:44;6.40;;;4.00;;
51828;SDS011;37881;48.024;8.774;2023-06-14T09:12:31;6.93;;;4.00;;
51828;SDS011;37881;48.024;8.774;2023-06-14T09:14:58;5.07;;;3.92;;
51828;SDS011;37881;48.024;8.774;2023-06-14T09:17:26;8.30;;;4.60;;
51828;SDS011;37881;48.024;8.774;2023-06-14T09:19:54;7.28;;;4.30;;
51828;SDS011;37881;48.024;8.774;2023-06-14T09:22:22;6.40;;;4.15;;
51828;SDS011;37881;48.024;8.774;2023-06-14T09:24:48;7.55;;;3.90;;
51828;SDS011;37881;48.024;8.774;2023-06-14T09:27:15;5.70;;;3.90;;
51828;SDS011;37881;48.024;8.774;2023-06-14T09:29:42;6.07;;;4.27;;
51828;SDS011;37881;48.024;8.774;2023-06-14T09:32:09;8.15;;;4.10;;
51828;SDS011;37881;48.024;8.774;2023-06-14T09:34:36;6.07;;;3.80;;
51828;SDS011;37881;48.024;8.774;2023-06-14T09:37:03;5.78;;;3.88;;
51828;SDS011;37881;48.024;8.774;2023-06-14T09:39:31;8.25;;;4.18;;
51828;SDS011;37881;48.024;8.774;2023-06-14T09:41:57;6.53;;;4.00;;
51828;SDS011;37881;48.024;8.774;2023-06-14T09:44:25;6.13;;;4.30;;
51828;SDS011;37881;48.024;8.774;2023-06-14T09:46:55;5.72;;;4.30;;
51828;SDS011;37881;48.024;8.774;2023-06-14T09:49:22;6.03;;;4.10;;
51828;SDS011;37881;48.024;8.774;2023-06-14T09:51:50;4.97;;;3.90;;
51828;SDS011;37881;48.024;8.774;2023-06-14T09:54:20;5.93;;;3.70;;
51828;SDS011;37881;48.024;8.774;2023-06-14T09:56:49;6.13;;;4.03;;
51828;SDS011;37881;48.024;8.774;2023-06-14T09:59:22;6.38;;;4.30;;
51828;SDS011;37881;48.024;8.774;2023-06-14T10:01:58;7.78;;;4.70;;
51828;SDS011;37881;48.024;8.774;2023-06-14T10:04:27;5.57;;;4.20;;
51828;SDS011;37881;48.024;8.774;2023-06-14T10:06:57;7.13;;;4.60;;
51828;SDS011;37881;48.024;8.774;2023-06-14T10:09:25;6.10;;;4.50;;
51828;SDS011;37881;48.024;8.774;2023-06-14T10:11:52;7.38;;;4.30;;
51828;SDS011;37881;48.024;8.774;2023-06-14T10:14:19;5.70;;;4.10;;
51828;SDS011;37881;48.024;8.774;2023-06-14T10:22:02;6.05;;;4.30;;
51828;SDS011;37881;48.024;8.774;2023-06-14T10:24:41;5.65;;;4.40;;
51828;SDS011;37881;48.024;8.774;2023-06-14T10:27:10;5.90;;;4.20;;
51828;SDS011;37881;48.024;8.774;2023-06-14T10:32:25;5.33;;;4.50;;
51828;SDS011;37881;48.024;8.774;2023-06-14T10:34:59;6.03;;;4.60;;
51828;SDS011;37881;48.024;8.774;2023-06-14T10:37:27;5.93;;;4.43;;
51828;SDS011;37881;48.024;8.774;2023-06-14T10:39:54;5.45;;;4.30;;
51828;SDS011;37881;48.024;8.774;2023-06-14T10:42:21;5.65;;;4.38;;
51828;SDS011;37881;48.024;8.774;2023-06-14T10:44:49;7.03;;;4.50;;
51828;SDS011;37881;48.024;8.774;2023-06-14T10:47:31;7.22;;;4.80;;
51828;SDS011;37881;48.024;8.774;2023-06-14T10:50:07;6.30;;;4.90;;
51828;SDS011;37881;48.024;8.774;2023-06-14T10:52:40;6.55;;;5.03;;
51828;SDS011;37881;48.024;8.774;2023-06-14T10:57:46;7.23;;;5.30;;
51828;SDS011;37881;48.024;8.774;2023-06-14T11:00:18;8.68;;;5.32;;
51828;SDS011;37881;48.024;8.774;2023-06-14T11:05:52;7.35;;;5.53;;
51828;SDS011;37881;48.024;8.774;2023-06-14T11:08:39;7.38;;;5.20;;
51828;SDS011;37881;48.024;8.774;2023-06-14T11:11:25;7.17;;;5.57;;
51828;SDS011;37881;48.024;8.774;2023-06-14T11:13:59;9.57;;;5.80;;
51828;SDS011;37881;48.024;8.774;2023-06-14T11:16:27;9.55;;;5.80;;
51828;SDS011;37881;48.024;8.774;2023-06-14T11:18:54;8.52;;;5.68;;
51828;SDS011;37881;48.024;8.774;2023-06-14T11:21:21;9.35;;;5.63;;
51828;SDS011;37881;48.024;8.774;2023-06-14T11:23:51;9.27;;;6.00;;
51828;SDS011;37881;48.024;8.774;2023-06-14T11:26:26;9.70;;;6.00;;
51828;SDS011;37881;48.024;8.774;2023-06-14T11:28:59;9.63;;;5.57;;
51828;SDS011;37881;48.024;8.774;2023-06-14T11:31:27;7.22;;;5.30;;
51828;SDS011;37881;48.024;8.774;2023-06-14T11:33:56;7.60;;;5.50;;
51828;SDS011;37881;48.024;8.774;2023-06-14T11:36:27;8.47;;;6.03;;
51828;SDS011;37881;48.024;8.774;2023-06-14T11:39:00;8.80;;;5.80;;
51828;SDS011;37881;48.024;8.774;2023-06-14T11:41:42;9.52;;;5.97;;
51828;SDS011;37881;48.024;8.774;2023-06-14T11:44:11;23.63;;;6.60;;
51828;SDS011;37881;48.024;8.774;2023-06-14T11:46:38;10.05;;;6.32;;
51828;SDS011;37881;48.024;8.774;2023-06-14T11:49:06;11.67;;;5.93;;
51828;SDS011;37881;48.024;8.774;2023-06-14T11:51:34;14.57;;;6.03;;
51828;SDS011;37881;48.024;8.774;2023-06-14T11:54:02;10.77;;;6.22;;
51828;SDS011;37881;48.024;8.774;2023-06-14T11:56:30;9.88;;;6.00;;
51828;SDS011;37881;48.024;8.774;2023-06-14T11:58:58;10.05;;;6.00;;
51828;SDS011;37881;48.024;8.774;2023-06-14T12:01:26;8.97;;;6.23;;
51828;SDS011;37881;48.024;8.774;2023-06-14T12:03:53;7.95;;;5.90;;
51828;SDS011;37881;48.024;8.774;2023-06-14T12:06:27;8.10;;;5.93;;
51828;SDS011;37881;48.024;8.774;2023-06-14T12:08:59;9.68;;;6.22;;
51828;SDS011;37881;48.024;8.774;2023-06-14T12:11:32;12.05;;;6.25;;
51828;SDS011;37881;48.024;8.774;2023-06-14T12:14:02;7.53;;;5.93;;
51828;SDS011;37881;48.024;8.774;2023-06-14T12:16:31;10.63;;;6.25;;
51828;SDS011;37881;48.024;8.774;2023-06-14T12:19:00;9.63;;;6.00;;
51828;SDS011;37881;48.024;8.774;2023-06-14T12:21:28;11.80;;;6.45;;
51828;SDS011;37881;48.024;8.774;2023-06-14T12:23:55;13.35;;;6.70;;
51828;SDS011;37881;48.024;8.774;2023-06-14T12:26:22;26.03;;;7.43;;
51828;SDS011;37881;48.024;8.774;2023-06-14T12:28:51;20.67;;;6.80;;
51828;SDS011;37881;48.024;8.774;2023-06-14T12:31:18;13.55;;;6.72;;
51828;SDS011;37881;48.024;8.774;2023-06-14T12:33:46;9.15;;;6.35;;
51828;SDS011;37881;48.024;8.774;2023-06-14T12:36:15;9.70;;;6.05;;
51828;SDS011;37881;48.024;8.774;2023-06-14T12:38:43;7.43;;;5.60;;
51828;SDS011;37881;48.024;8.774;2023-06-14T12:41:10;11.05;;;6.30;;
51828;SDS011;37881;48.024;8.774;2023-06-14T12:43:37;8.80;;;5.80;;
51828;SDS011;37881;48.024;8.774;2023-06-14T12:46:04;8.40;;;5.88;;
51828;SDS011;37881;48.024;8.774;2023-06-14T12:48:31;8.68;;;6.00;;
51828;SDS011;37881;48.024;8.774;2023-06-14T12:50:57;9.77;;;6.37;;
51828;SDS011;37881;48.024;8.774;2023-06-14T12:53:24;13.15;;;6.22;;
51828;SDS011;37881;48.024;8.774;2023-06-14T12:55:51;8.80;;;5.90;;
51828;SDS011;37881;48.024;8.774;2023-06-14T12:58:18;7.85;;;5.85;;
51828;SDS011;37881;48.024;8.774;2023-06-14T13:00:46;10.48;;;6.00;;
51828;SDS011;37881;48.024;8.774;2023-06-14T13:03:13;9.80;;;6.20;;
51828;SDS011;37881;48.024;8.774;2023-06-14T13:05:41;7.82;;;5.60;;
51828;SDS011;37881;48.024;8.774;2023-06-14T13:08:09;8.55;;;6.30;;
51828;SDS011;37881;48.024;8.774;2023-06-14T13:10:36;11.50;;;6.10;;
51828;SDS011;37881;48.024;8.774;2023-06-14T13:13:03;9.73;;;6.43;;
51828;SDS011;37881;48.024;8.774;2023-06-14T13:15:30;7.33;;;6.00;;
51828;SDS011;37881;48.024;8.774;2023-06-14T13:17:57;9.05;;;6.35;;
51828;SDS011;37881;48.024;8.774;2023-06-14T13:20:23;8.48;;;6.60;;
51828;SDS011;37881;48.024;8.774;2023-06-14T13:22:50;8.65;;;6.15;;
51828;SDS011;37881;48.024;8.774;2023-06-14T13:25:17;8.20;;;6.53;;
51828;SDS011;37881;48.024;8.774;2023-06-14T13:27:44;10.37;;;6.00;;
51828;SDS011;37881;48.024;8.774;2023-06-14T13:30:11;16.95;;;6.85;;
51828;SDS011;37881;48.024;8.774;2023-06-14T13:32:38;12.98;;;6.82;;
51828;SDS011;37881;48.024;8.774;2023-06-14T13:35:05;11.10;;;6.15;;
51828;SDS011;37881;48.024;8.774;2023-06-14T13:37:32;10.52;;;6.10;;
51828;SDS011;37881;48.024;8.774;2023-06-14T13:39:58;11.90;;;6.43;;
51828;SDS011;37881;48.024;8.774;2023-06-14T13:42:25;8.45;;;6.28;;
51828;SDS011;37881;48.024;8.774;2023-06-14T13:44:52;8.38;;;6.43;;
51828;SDS011;37881;48.024;8.774;2023-06-14T13:47:19;8.82;;;6.20;;
51828;SDS011;37881;48.024;8.774;2023-06-14T13:49:46;8.68;;;6.00;;
51828;SDS011;37881;48.024;8.774;2023-06-14T13:52:13;9.07;;;6.13;;
51828;SDS011;37881;48.024;8.774;2023-06-14T13:54:40;8.95;;;6.13;;
51828;SDS011;37881;48.024;8.774;2023-06-14T13:57:07;10.45;;;6.55;;
51828;SDS011;37881;48.024;8.774;2023-06-14T13:59:34;8.35;;;6.10;;
51828;SDS011;37881;48.024;8.774;2023-06-14T14:02:01;10.73;;;6.13;;
51828;SDS011;37881;48.024;8.774;2023-06-14T14:04:28;7.47;;;6.10;;
51828;SDS011;37881;48.024;8.774;2023-06-14T14:06:55;7.75;;;6.40;;
51828;SDS011;37881;48.024;8.774;2023-06-14T14:09:22;8.98;;;6.43;;
51828;SDS011;37881;48.024;8.774;2023-06-14T14:11:49;8.23;;;5.90;;
51828;SDS011;37881;48.024;8.774;2023-06-14T14:14:16;7.93;;;5.95;;
51828;SDS011;37881;48.024;8.774;2023-06-14T14:16:43;7.63;;;5.73;;
51828;SDS011;37881;48.024;8.774;2023-06-14T14:19:09;8.80;;;6.22;;
51828;SDS011;37881;48.024;8.774;2023-06-14T14:21:36;14.60;;;6.05;;
51828;SDS011;37881;48.024;8.774;2023-06-14T14:24:04;7.85;;;5.70;;
51828;SDS011;37881;48.024;8.774;2023-06-14T14:26:31;9.52;;;5.75;;
51828;SDS011;37881;48.024;8.774;2023-06-14T14:28:58;9.43;;;5.90;;
51828;SDS011;37881;48.024;8.774;2023-06-14T14:31:25;8.45;;;5.88;;
51828;SDS011;37881;48.024;8.774;2023-06-14T14:33:52;7.57;;;6.10;;
51828;SDS011;37881;48.024;8.774;2023-06-14T14:36:18;9.60;;;6.07;;
51828;SDS011;37881;48.024;8.774;2023-06-14T14:38:45;11.25;;;6.00;;
51828;SDS011;37881;48.024;8.774;2023-06-14T14:41:13;11.50;;;6.30;;
51828;SDS011;37881;48.024;8.774;2023-06-14T14:43:40;9.80;;;6.20;;
51828;SDS011;37881;48.024;8.774;2023-06-14T14:46:07;8.25;;;6.05;;
51828;SDS011;37881;48.024;8.774;2023-06-14T14:48:34;10.05;;;6.20;;
51828;SDS011;37881;48.024;8.774;2023-06-14T14:51:00;9.55;;;6.22;;
51828;SDS011;37881;48.024;8.774;2023-06-14T14:53:28;9.83;;;6.27;;
51828;SDS011;37881;48.024;8.774;2023-06-14T14:55:55;8.10;;;6.10;;
51828;SDS011;37881;48.024;8.774;2023-06-14T14:58:22;7.85;;;6.10;;
51828;SDS011;37881;48.024;8.774;2023-06-14T15:00:49;10.48;;;6.05;;
51828;SDS011;37881;48.024;8.774;2023-06-14T15:03:16;10.15;;;5.93;;